sensor_id;sensor_type;location;lat;lon;timestamp;P1;durP1;ratioP1;P2;durP2;ratioP2
4867;SDS011;2448;48.086;10.862;2022-11-21T00:00:11;0.70;;;0.70;;
4867;SDS011;2448;48.086;10.862;2022-11-21T00:02:37;0.87;;;0.87;;
4867;SDS011;2448;48.086;10.862;2022-11-21T00:05:02;0.87;;;0.87;;
4867;SDS011;2448;48.086;10.862;2022-11-21T00:07:27;0.80;;;0.80;;
4867;SDS011;2448;48.086;10.862;2022-11-21T00:09:53;0.70;;;0.70;;
4867;SDS011;2448;48.086;10.862;2022-11-21T00:12:18;0.90;;;0.90;;
4867;SDS011;2448;48.086;10.862;2022-11-21T00:14:43;0.70;;;0.70;;
4867;SDS011;2448;48.086;10.862;2022-11-21T00:17:09;0.70;;;0.70;;
4867;SDS011;2448;48.086;10.862;2022-11-21T00:19:34;0.60;;;0.60;;
4867;SDS011;2448;48.086;10.862;2022-11-21T00:21:59;0.70;;;0.70;;
4867;SDS011;2448;48.086;10.862;2022-11-21T00:24:25;0.60;;;0.60;;
4867;SDS011;2448;48.086;10.862;2022-11-21T00:26:50;0.70;;;0.70;;
4867;SDS011;2448;48.086;10.862;2022-11-21T00:29:16;0.60;;;0.60;;
4867;SDS011;2448;48.086;10.862;2022-11-21T00:31:41;3.63;;;0.80;;
4867;SDS011;2448;48.086;10.862;2022-11-21T00:34:07;2.57;;;0.90;;
4867;SDS011;2448;48.086;10.862;2022-11-21T00:36:33;0.90;;;0.90;;
4867;SDS011;2448;48.086;10.862;2022-11-21T00:38:58;0.70;;;0.70;;
4867;SDS011;2448;48.086;10.862;2022-11-21T00:41:23;0.90;;;0.90;;
4867;SDS011;2448;48.086;10.862;2022-11-21T00:43:49;0.80;;;0.80;;
4867;SDS011;2448;48.086;10.862;2022-11-21T00:46:14;0.60;;;0.60;;
4867;SDS011;2448;48.086;10.862;2022-11-21T00:48:40;0.80;;;0.80;;
4867;SDS011;2448;48.086;10.862;2022-11-21T00:51:05;0.70;;;0.70;;
4867;SDS011;2448;48.086;10.862;2022-11-21T00:53:30;0.83;;;0.80;;
4867;SDS011;2448;48.086;10.862;2022-11-21T00:55:56;1.00;;;1.00;;
4867;SDS011;2448;48.086;10.862;2022-11-21T00:58:21;0.70;;;0.70;;
4867;SDS011;2448;48.086;10.862;2022-11-21T01:00:47;0.70;;;0.70;;
4867;SDS011;2448;48.086;10.862;2022-11-21T01:03:12;0.60;;;0.60;;
4867;SDS011;2448;48.086;10.862;2022-11-21T01:05:37;0.70;;;0.70;;
4867;SDS011;2448;48.086;10.862;2022-11-21T01:08:03;0.90;;;0.90;;
4867;SDS011;2448;48.086;10.862;2022-11-21T01:10:28;0.80;;;0.80;;
4867;SDS011;2448;48.086;10.862;2022-11-21T01:12:54;0.60;;;0.60;;
4867;SDS011;2448;48.086;10.862;2022-11-21T01:15:19;0.73;;;0.73;;
4867;SDS011;2448;48.086;10.862;2022-11-21T01:17:44;0.60;;;0.60;;
4867;SDS011;2448;48.086;10.862;2022-11-21T01:20:10;1.10;;;1.10;;
4867;SDS011;2448;48.086;10.862;2022-11-21T01:22:35;0.93;;;0.73;;
4867;SDS011;2448;48.086;10.862;2022-11-21T01:25:01;0.70;;;0.70;;
4867;SDS011;2448;48.086;10.862;2022-11-21T01:27:26;0.87;;;0.87;;
4867;SDS011;2448;48.086;10.862;2022-11-21T01:29:51;0.90;;;0.90;;
4867;SDS011;2448;48.086;10.862;2022-11-21T01:32:17;0.80;;;0.80;;
4867;SDS011;2448;48.086;10.862;2022-11-21T01:34:42;0.87;;;0.87;;
4867;SDS011;2448;48.086;10.862;2022-11-21T01:37:08;0.80;;;0.80;;
4867;SDS011;2448;48.086;10.862;2022-11-21T01:39:33;1.13;;;0.70;;
4867;SDS011;2448;48.086;10.862;2022-11-21T01:41:58;0.73;;;0.73;;
4867;SDS011;2448;48.086;10.862;2022-11-21T01:44:25;1.00;;;1.00;;
4867;SDS011;2448;48.086;10.862;2022-11-21T01:46:51;0.90;;;0.90;;
4867;SDS011;2448;48.086;10.862;2022-11-21T01:49:19;0.77;;;0.77;;
4867;SDS011;2448;48.086;10.862;2022-11-21T01:52:05;1.00;;;1.00;;
4867;SDS011;2448;48.086;10.862;2022-11-21T01:57:05;0.80;;;0.80;;
4867;SDS011;2448;48.086;10.862;2022-11-21T01:59:37;3.50;;;0.70;;
4867;SDS011;2448;48.086;10.862;2022-11-21T02:02:04;0.80;;;0.80;;
4867;SDS011;2448;48.086;10.862;2022-11-21T02:04:31;0.60;;;0.60;;
4867;SDS011;2448;48.086;10.862;2022-11-21T02:06:57;3.03;;;1.47;;
4867;SDS011;2448;48.086;10.862;2022-11-21T02:09:23;0.90;;;0.90;;
4867;SDS011;2448;48.086;10.862;2022-11-21T02:11:56;0.80;;;0.80;;
4867;SDS011;2448;48.086;10.862;2022-11-21T02:14:23;0.70;;;0.70;;
4867;SDS011;2448;48.086;10.862;2022-11-21T02:16:48;0.73;;;0.73;;
4867;SDS011;2448;48.086;10.862;2022-11-21T02:19:18;0.77;;;0.77;;
4867;SDS011;2448;48.086;10.862;2022-11-21T02:21:51;0.70;;;0.70;;
4867;SDS011;2448;48.086;10.862;2022-11-21T02:27:04;0.70;;;0.70;;
4867;SDS011;2448;48.086;10.862;2022-11-21T02:29:29;0.70;;;0.70;;
4867;SDS011;2448;48.086;10.862;2022-11-21T02:31:57;1.00;;;1.00;;
4867;SDS011;2448;48.086;10.862;2022-11-21T02:34:23;0.90;;;0.90;;
4867;SDS011;2448;48.086;10.862;2022-11-21T02:36:48;0.90;;;0.90;;
4867;SDS011;2448;48.086;10.862;2022-11-21T02:39:32;0.80;;;0.80;;
4867;SDS011;2448;48.086;10.862;2022-11-21T02:42:11;1.30;;;1.00;;
4867;SDS011;2448;48.086;10.862;2022-11-21T02:44:42;1.00;;;1.00;;
4867;SDS011;2448;48.086;10.862;2022-11-21T02:47:10;0.70;;;0.70;;
4867;SDS011;2448;48.086;10.862;2022-11-21T02:49:41;1.50;;;1.10;;
4867;SDS011;2448;48.086;10.862;2022-11-21T02:52:09;0.83;;;0.83;;
4867;SDS011;2448;48.086;10.862;2022-11-21T02:54:34;0.67;;;0.67;;
4867;SDS011;2448;48.086;10.862;2022-11-21T02:56:59;0.73;;;0.73;;
4867;SDS011;2448;48.086;10.862;2022-11-21T02:59:25;0.63;;;0.63;;
4867;SDS011;2448;48.086;10.862;2022-11-21T03:01:50;0.60;;;0.60;;
4867;SDS011;2448;48.086;10.862;2022-11-21T03:04:16;0.80;;;0.80;;
4867;SDS011;2448;48.086;10.862;2022-11-21T03:06:41;0.77;;;0.77;;
4867;SDS011;2448;48.086;10.862;2022-11-21T03:09:06;0.80;;;0.80;;
4867;SDS011;2448;48.086;10.862;2022-11-21T03:11:32;0.90;;;0.90;;
4867;SDS011;2448;48.086;10.862;2022-11-21T03:13:57;0.80;;;0.80;;
4867;SDS011;2448;48.086;10.862;2022-11-21T03:16:22;0.70;;;0.70;;
4867;SDS011;2448;48.086;10.862;2022-11-21T03:18:48;0.70;;;0.70;;
4867;SDS011;2448;48.086;10.862;2022-11-21T03:21:13;3.20;;;0.80;;
4867;SDS011;2448;48.086;10.862;2022-11-21T03:23:38;0.70;;;0.70;;
4867;SDS011;2448;48.086;10.862;2022-11-21T03:26:04;0.73;;;0.73;;
4867;SDS011;2448;48.086;10.862;2022-11-21T03:28:29;1.37;;;0.93;;
4867;SDS011;2448;48.086;10.862;2022-11-21T03:30:54;1.43;;;1.10;;
4867;SDS011;2448;48.086;10.862;2022-11-21T03:33:20;0.80;;;0.80;;
4867;SDS011;2448;48.086;10.862;2022-11-21T03:35:46;0.83;;;0.83;;
4867;SDS011;2448;48.086;10.862;2022-11-21T03:38:11;2.73;;;0.80;;
4867;SDS011;2448;48.086;10.862;2022-11-21T03:40:36;0.60;;;0.60;;
4867;SDS011;2448;48.086;10.862;2022-11-21T03:43:03;0.67;;;0.67;;
4867;SDS011;2448;48.086;10.862;2022-11-21T03:45:28;0.83;;;0.83;;
4867;SDS011;2448;48.086;10.862;2022-11-21T03:47:54;0.70;;;0.70;;
4867;SDS011;2448;48.086;10.862;2022-11-21T03:50:19;1.17;;;1.10;;
4867;SDS011;2448;48.086;10.862;2022-11-21T03:52:45;0.77;;;0.70;;
4867;SDS011;2448;48.086;10.862;2022-11-21T03:55:11;1.07;;;0.80;;
4867;SDS011;2448;48.086;10.862;2022-11-21T03:57:36;1.90;;;0.90;;
4867;SDS011;2448;48.086;10.862;2022-11-21T04:00:03;0.80;;;0.80;;
4867;SDS011;2448;48.086;10.862;2022-11-21T04:02:29;0.73;;;0.73;;
4867;SDS011;2448;48.086;10.862;2022-11-21T04:04:55;2.10;;;1.03;;
4867;SDS011;2448;48.086;10.862;2022-11-21T04:07:20;0.80;;;0.80;;
4867;SDS011;2448;48.086;10.862;2022-11-21T04:09:45;0.80;;;0.80;;
4867;SDS011;2448;48.086;10.862;2022-11-21T04:12:11;1.50;;;0.90;;
4867;SDS011;2448;48.086;10.862;2022-11-21T04:14:36;9.43;;;1.27;;
4867;SDS011;2448;48.086;10.862;2022-11-21T04:17:01;0.70;;;0.70;;
4867;SDS011;2448;48.086;10.862;2022-11-21T04:19:27;0.50;;;0.50;;
4867;SDS011;2448;48.086;10.862;2022-11-21T04:21:52;0.53;;;0.53;;
4867;SDS011;2448;48.086;10.862;2022-11-21T04:24:17;0.83;;;0.83;;
4867;SDS011;2448;48.086;10.862;2022-11-21T04:26:43;3.03;;;0.90;;
4867;SDS011;2448;48.086;10.862;2022-11-21T04:29:08;20.17;;;1.20;;
4867;SDS011;2448;48.086;10.862;2022-11-21T04:31:34;0.60;;;0.60;;
4867;SDS011;2448;48.086;10.862;2022-11-21T04:33:59;0.80;;;0.80;;
4867;SDS011;2448;48.086;10.862;2022-11-21T04:36:24;11.33;;;1.13;;
4867;SDS011;2448;48.086;10.862;2022-11-21T04:38:50;0.70;;;0.70;;
4867;SDS011;2448;48.086;10.862;2022-11-21T04:41:15;0.73;;;0.73;;
4867;SDS011;2448;48.086;10.862;2022-11-21T04:43:40;0.60;;;0.60;;
4867;SDS011;2448;48.086;10.862;2022-11-21T04:46:06;0.97;;;0.80;;
4867;SDS011;2448;48.086;10.862;2022-11-21T04:48:31;0.80;;;0.80;;
4867;SDS011;2448;48.086;10.862;2022-11-21T04:50:57;1.07;;;1.07;;
4867;SDS011;2448;48.086;10.862;2022-11-21T04:53:22;3.97;;;0.90;;
4867;SDS011;2448;48.086;10.862;2022-11-21T04:55:47;1.10;;;1.00;;
4867;SDS011;2448;48.086;10.862;2022-11-21T04:58:13;0.60;;;0.60;;
4867;SDS011;2448;48.086;10.862;2022-11-21T05:00:38;1.13;;;0.73;;
4867;SDS011;2448;48.086;10.862;2022-11-21T05:03:04;0.70;;;0.70;;
4867;SDS011;2448;48.086;10.862;2022-11-21T05:05:29;0.90;;;0.90;;
4867;SDS011;2448;48.086;10.862;2022-11-21T05:07:54;0.80;;;0.80;;
4867;SDS011;2448;48.086;10.862;2022-11-21T05:10:20;0.60;;;0.60;;
4867;SDS011;2448;48.086;10.862;2022-11-21T05:12:45;0.70;;;0.70;;
4867;SDS011;2448;48.086;10.862;2022-11-21T05:15:29;0.67;;;0.67;;
4867;SDS011;2448;48.086;10.862;2022-11-21T05:17:57;0.60;;;0.60;;
4867;SDS011;2448;48.086;10.862;2022-11-21T05:20:22;4.00;;;0.80;;
4867;SDS011;2448;48.086;10.862;2022-11-21T05:22:51;0.67;;;0.67;;
4867;SDS011;2448;48.086;10.862;2022-11-21T05:25:16;0.70;;;0.70;;
4867;SDS011;2448;48.086;10.862;2022-11-21T05:27:41;0.70;;;0.70;;
4867;SDS011;2448;48.086;10.862;2022-11-21T05:30:07;0.77;;;0.77;;
4867;SDS011;2448;48.086;10.862;2022-11-21T05:32:32;8.20;;;1.37;;
4867;SDS011;2448;48.086;10.862;2022-11-21T05:34:58;8.70;;;0.83;;
4867;SDS011;2448;48.086;10.862;2022-11-21T05:37:23;1.53;;;0.80;;
4867;SDS011;2448;48.086;10.862;2022-11-21T05:39:49;0.80;;;0.80;;
4867;SDS011;2448;48.086;10.862;2022-11-21T05:42:14;0.80;;;0.80;;
4867;SDS011;2448;48.086;10.862;2022-11-21T05:44:39;0.87;;;0.87;;
4867;SDS011;2448;48.086;10.862;2022-11-21T05:47:05;0.80;;;0.80;;
4867;SDS011;2448;48.086;10.862;2022-11-21T05:49:30;0.70;;;0.70;;
4867;SDS011;2448;48.086;10.862;2022-11-21T05:51:55;0.70;;;0.70;;
4867;SDS011;2448;48.086;10.862;2022-11-21T05:54:21;2.03;;;0.93;;
4867;SDS011;2448;48.086;10.862;2022-11-21T05:56:46;0.90;;;0.90;;
4867;SDS011;2448;48.086;10.862;2022-11-21T05:59:11;0.80;;;0.80;;
4867;SDS011;2448;48.086;10.862;2022-11-21T06:01:37;0.77;;;0.77;;
4867;SDS011;2448;48.086;10.862;2022-11-21T06:04:21;1.47;;;1.03;;
4867;SDS011;2448;48.086;10.862;2022-11-21T06:06:46;0.87;;;0.87;;
4867;SDS011;2448;48.086;10.862;2022-11-21T06:09:11;0.70;;;0.70;;
4867;SDS011;2448;48.086;10.862;2022-11-21T06:11:37;1.37;;;0.70;;
4867;SDS011;2448;48.086;10.862;2022-11-21T06:14:02;1.50;;;1.40;;
4867;SDS011;2448;48.086;10.862;2022-11-21T06:16:27;0.60;;;0.60;;
4867;SDS011;2448;48.086;10.862;2022-11-21T06:18:53;0.73;;;0.73;;
4867;SDS011;2448;48.086;10.862;2022-11-21T06:21:19;0.67;;;0.67;;
4867;SDS011;2448;48.086;10.862;2022-11-21T06:23:45;0.60;;;0.60;;
4867;SDS011;2448;48.086;10.862;2022-11-21T06:26:12;0.70;;;0.70;;
4867;SDS011;2448;48.086;10.862;2022-11-21T06:28:38;0.50;;;0.50;;
4867;SDS011;2448;48.086;10.862;2022-11-21T06:33:29;0.60;;;0.60;;
4867;SDS011;2448;48.086;10.862;2022-11-21T06:35:54;0.80;;;0.80;;
4867;SDS011;2448;48.086;10.862;2022-11-21T06:38:20;0.90;;;0.90;;
4867;SDS011;2448;48.086;10.862;2022-11-21T06:40:45;0.70;;;0.70;;
4867;SDS011;2448;48.086;10.862;2022-11-21T06:43:10;0.60;;;0.60;;
4867;SDS011;2448;48.086;10.862;2022-11-21T06:45:36;0.80;;;0.80;;
4867;SDS011;2448;48.086;10.862;2022-11-21T06:48:01;0.70;;;0.70;;
4867;SDS011;2448;48.086;10.862;2022-11-21T06:50:27;0.73;;;0.73;;
4867;SDS011;2448;48.086;10.862;2022-11-21T06:52:57;0.60;;;0.60;;
4867;SDS011;2448;48.086;10.862;2022-11-21T06:55:23;1.17;;;1.17;;
4867;SDS011;2448;48.086;10.862;2022-11-21T06:57:49;1.00;;;1.00;;
4867;SDS011;2448;48.086;10.862;2022-11-21T07:00:15;0.80;;;0.80;;
4867;SDS011;2448;48.086;10.862;2022-11-21T07:02:40;0.70;;;0.70;;
4867;SDS011;2448;48.086;10.862;2022-11-21T07:05:06;0.70;;;0.70;;
4867;SDS011;2448;48.086;10.862;2022-11-21T07:07:31;0.70;;;0.70;;
4867;SDS011;2448;48.086;10.862;2022-11-21T07:09:56;0.87;;;0.87;;
4867;SDS011;2448;48.086;10.862;2022-11-21T07:12:22;0.77;;;0.77;;
4867;SDS011;2448;48.086;10.862;2022-11-21T07:15:06;0.80;;;0.80;;
4867;SDS011;2448;48.086;10.862;2022-11-21T07:17:31;2.33;;;0.80;;
4867;SDS011;2448;48.086;10.862;2022-11-21T07:19:57;1.23;;;0.90;;
4867;SDS011;2448;48.086;10.862;2022-11-21T07:22:22;0.90;;;0.90;;
4867;SDS011;2448;48.086;10.862;2022-11-21T07:24:48;6.70;;;0.90;;
4867;SDS011;2448;48.086;10.862;2022-11-21T07:27:13;0.73;;;0.73;;
4867;SDS011;2448;48.086;10.862;2022-11-21T07:29:38;0.90;;;0.90;;
4867;SDS011;2448;48.086;10.862;2022-11-21T07:32:04;0.93;;;0.93;;
4867;SDS011;2448;48.086;10.862;2022-11-21T07:34:29;0.70;;;0.70;;
4867;SDS011;2448;48.086;10.862;2022-11-21T07:36:54;0.97;;;0.97;;
4867;SDS011;2448;48.086;10.862;2022-11-21T07:39:20;0.90;;;0.90;;
4867;SDS011;2448;48.086;10.862;2022-11-21T07:41:45;1.20;;;1.10;;
4867;SDS011;2448;48.086;10.862;2022-11-21T07:44:10;1.43;;;1.30;;
4867;SDS011;2448;48.086;10.862;2022-11-21T07:46:36;0.80;;;0.80;;
4867;SDS011;2448;48.086;10.862;2022-11-21T07:49:01;0.60;;;0.60;;
4867;SDS011;2448;48.086;10.862;2022-11-21T07:51:26;0.90;;;0.90;;
4867;SDS011;2448;48.086;10.862;2022-11-21T07:53:52;0.80;;;0.80;;
4867;SDS011;2448;48.086;10.862;2022-11-21T07:56:17;0.80;;;0.80;;
4867;SDS011;2448;48.086;10.862;2022-11-21T07:58:43;1.13;;;1.13;;
4867;SDS011;2448;48.086;10.862;2022-11-21T08:01:08;0.80;;;0.80;;
4867;SDS011;2448;48.086;10.862;2022-11-21T08:03:33;0.60;;;0.60;;
4867;SDS011;2448;48.086;10.862;2022-11-21T08:06:03;0.70;;;0.70;;
4867;SDS011;2448;48.086;10.862;2022-11-21T08:08:28;0.80;;;0.80;;
4867;SDS011;2448;48.086;10.862;2022-11-21T08:10:54;0.70;;;0.70;;
4867;SDS011;2448;48.086;10.862;2022-11-21T08:13:19;0.80;;;0.80;;
4867;SDS011;2448;48.086;10.862;2022-11-21T08:15:44;0.70;;;0.70;;
4867;SDS011;2448;48.086;10.862;2022-11-21T08:18:10;1.20;;;1.20;;
4867;SDS011;2448;48.086;10.862;2022-11-21T08:20:36;0.60;;;0.60;;
4867;SDS011;2448;48.086;10.862;2022-11-21T08:23:02;1.33;;;1.20;;
4867;SDS011;2448;48.086;10.862;2022-11-21T08:25:27;0.90;;;0.90;;
4867;SDS011;2448;48.086;10.862;2022-11-21T08:27:55;0.90;;;0.90;;
4867;SDS011;2448;48.086;10.862;2022-11-21T08:30:20;3.13;;;1.10;;
4867;SDS011;2448;48.086;10.862;2022-11-21T08:32:45;1.00;;;1.00;;
4867;SDS011;2448;48.086;10.862;2022-11-21T08:35:11;1.10;;;1.10;;
4867;SDS011;2448;48.086;10.862;2022-11-21T08:37:36;1.00;;;1.00;;
4867;SDS011;2448;48.086;10.862;2022-11-21T08:40:02;0.80;;;0.80;;
4867;SDS011;2448;48.086;10.862;2022-11-21T08:42:27;1.30;;;1.03;;
4867;SDS011;2448;48.086;10.862;2022-11-21T08:44:52;1.10;;;1.10;;
4867;SDS011;2448;48.086;10.862;2022-11-21T08:47:18;7.53;;;1.27;;
4867;SDS011;2448;48.086;10.862;2022-11-21T08:49:44;0.90;;;0.90;;
4867;SDS011;2448;48.086;10.862;2022-11-21T08:52:10;2.97;;;1.07;;
4867;SDS011;2448;48.086;10.862;2022-11-21T08:54:35;1.60;;;1.50;;
4867;SDS011;2448;48.086;10.862;2022-11-21T08:57:01;15.00;;;7.07;;
4867;SDS011;2448;48.086;10.862;2022-11-21T08:59:26;4.07;;;2.87;;
4867;SDS011;2448;48.086;10.862;2022-11-21T09:01:51;2.10;;;1.70;;
4867;SDS011;2448;48.086;10.862;2022-11-21T09:04:17;1.20;;;1.20;;
4867;SDS011;2448;48.086;10.862;2022-11-21T09:06:42;3.17;;;2.97;;
4867;SDS011;2448;48.086;10.862;2022-11-21T09:09:08;6.60;;;3.87;;
4867;SDS011;2448;48.086;10.862;2022-11-21T09:11:34;3.07;;;2.83;;
4867;SDS011;2448;48.086;10.862;2022-11-21T09:13:59;6.03;;;2.87;;
4867;SDS011;2448;48.086;10.862;2022-11-21T09:16:43;7.53;;;4.77;;
4867;SDS011;2448;48.086;10.862;2022-11-21T09:19:27;2.67;;;2.47;;
4867;SDS011;2448;48.086;10.862;2022-11-21T09:21:52;2.60;;;1.87;;
4867;SDS011;2448;48.086;10.862;2022-11-21T09:24:18;2.93;;;2.53;;
4867;SDS011;2448;48.086;10.862;2022-11-21T09:26:43;6.80;;;4.10;;
4867;SDS011;2448;48.086;10.862;2022-11-21T09:29:09;4.63;;;2.70;;
4867;SDS011;2448;48.086;10.862;2022-11-21T09:31:42;7.43;;;3.53;;
4867;SDS011;2448;48.086;10.862;2022-11-21T09:34:08;4.30;;;3.90;;
4867;SDS011;2448;48.086;10.862;2022-11-21T09:36:33;1.03;;;1.03;;
4867;SDS011;2448;48.086;10.862;2022-11-21T09:38:58;0.80;;;0.80;;
4867;SDS011;2448;48.086;10.862;2022-11-21T09:47:03;3.47;;;1.27;;
4867;SDS011;2448;48.086;10.862;2022-11-21T09:49:31;0.80;;;0.80;;
4867;SDS011;2448;48.086;10.862;2022-11-21T09:52:01;26.97;;;1.10;;
4867;SDS011;2448;48.086;10.862;2022-11-21T09:54:28;3.20;;;1.07;;
4867;SDS011;2448;48.086;10.862;2022-11-21T09:56:55;0.73;;;0.73;;
4867;SDS011;2448;48.086;10.862;2022-11-21T09:59:24;1.10;;;1.10;;
4867;SDS011;2448;48.086;10.862;2022-11-21T10:01:53;2.50;;;1.90;;
4867;SDS011;2448;48.086;10.862;2022-11-21T10:04:18;1.90;;;1.80;;
4867;SDS011;2448;48.086;10.862;2022-11-21T10:07:06;2.83;;;1.43;;
4867;SDS011;2448;48.086;10.862;2022-11-21T10:10:04;1.90;;;1.10;;
4867;SDS011;2448;48.086;10.862;2022-11-21T10:15:06;3.03;;;1.00;;
4867;SDS011;2448;48.086;10.862;2022-11-21T10:17:40;0.90;;;0.90;;
4867;SDS011;2448;48.086;10.862;2022-11-21T10:22:41;1.10;;;1.00;;
4867;SDS011;2448;48.086;10.862;2022-11-21T10:25:14;3.27;;;1.00;;
4867;SDS011;2448;48.086;10.862;2022-11-21T10:27:55;0.80;;;0.80;;
4867;SDS011;2448;48.086;10.862;2022-11-21T10:30:21;1.40;;;1.40;;
4867;SDS011;2448;48.086;10.862;2022-11-21T10:33:07;1.40;;;1.13;;
4867;SDS011;2448;48.086;10.862;2022-11-21T10:35:37;1.77;;;0.87;;
4867;SDS011;2448;48.086;10.862;2022-11-21T10:38:11;1.23;;;0.90;;
4867;SDS011;2448;48.086;10.862;2022-11-21T10:40:46;4.10;;;1.10;;
4867;SDS011;2448;48.086;10.862;2022-11-21T10:43:58;1.00;;;0.80;;
4867;SDS011;2448;48.086;10.862;2022-11-21T10:46:20;1.53;;;1.13;;
4867;SDS011;2448;48.086;10.862;2022-11-21T10:48:47;0.60;;;0.60;;
4867;SDS011;2448;48.086;10.862;2022-11-21T10:54:08;2.40;;;1.83;;
4867;SDS011;2448;48.086;10.862;2022-11-21T10:56:52;2.83;;;1.17;;
4867;SDS011;2448;48.086;10.862;2022-11-21T10:59:26;4.10;;;0.80;;
4867;SDS011;2448;48.086;10.862;2022-11-21T11:01:56;2.50;;;1.00;;
4867;SDS011;2448;48.086;10.862;2022-11-21T11:04:21;1.90;;;1.07;;
4867;SDS011;2448;48.086;10.862;2022-11-21T11:06:47;3.37;;;1.00;;
4867;SDS011;2448;48.086;10.862;2022-11-21T11:09:26;1.90;;;0.83;;
4867;SDS011;2448;48.086;10.862;2022-11-21T11:12:37;0.70;;;0.70;;
4867;SDS011;2448;48.086;10.862;2022-11-21T11:14:48;0.70;;;0.70;;
4867;SDS011;2448;48.086;10.862;2022-11-21T11:17:14;2.07;;;0.90;;
4867;SDS011;2448;48.086;10.862;2022-11-21T11:19:40;1.13;;;0.80;;
4867;SDS011;2448;48.086;10.862;2022-11-21T11:22:26;0.87;;;0.87;;
4867;SDS011;2448;48.086;10.862;2022-11-21T11:24:52;0.90;;;0.90;;
4867;SDS011;2448;48.086;10.862;2022-11-21T11:27:18;1.83;;;1.73;;
4867;SDS011;2448;48.086;10.862;2022-11-21T11:29:50;1.70;;;1.60;;
4867;SDS011;2448;48.086;10.862;2022-11-21T11:32:18;9.53;;;1.27;;
4867;SDS011;2448;48.086;10.862;2022-11-21T11:34:59;0.77;;;0.77;;
4867;SDS011;2448;48.086;10.862;2022-11-21T11:42:52;1.67;;;0.90;;
4867;SDS011;2448;48.086;10.862;2022-11-21T11:48:41;1.90;;;0.77;;
4867;SDS011;2448;48.086;10.862;2022-11-21T11:53:43;0.67;;;0.67;;
4867;SDS011;2448;48.086;10.862;2022-11-21T11:56:17;0.73;;;0.73;;
4867;SDS011;2448;48.086;10.862;2022-11-21T12:04:21;1.77;;;0.90;;
4867;SDS011;2448;48.086;10.862;2022-11-21T12:07:01;0.67;;;0.67;;
4867;SDS011;2448;48.086;10.862;2022-11-21T12:12:03;2.90;;;2.40;;
4867;SDS011;2448;48.086;10.862;2022-11-21T12:20:41;0.93;;;0.93;;
4867;SDS011;2448;48.086;10.862;2022-11-21T12:22:57;4.40;;;1.00;;
4867;SDS011;2448;48.086;10.862;2022-11-21T12:25:24;6.10;;;0.87;;
4867;SDS011;2448;48.086;10.862;2022-11-21T12:27:51;0.80;;;0.70;;
4867;SDS011;2448;48.086;10.862;2022-11-21T12:38:14;6.53;;;0.80;;
4867;SDS011;2448;48.086;10.862;2022-11-21T12:45:35;1.27;;;1.27;;
4867;SDS011;2448;48.086;10.862;2022-11-21T12:48:24;3.70;;;1.23;;
4867;SDS011;2448;48.086;10.862;2022-11-21T12:59:25;6.80;;;1.07;;
4867;SDS011;2448;48.086;10.862;2022-11-21T13:04:45;7.47;;;1.00;;
4867;SDS011;2448;48.086;10.862;2022-11-21T13:07:13;2.17;;;0.97;;
4867;SDS011;2448;48.086;10.862;2022-11-21T13:09:39;5.23;;;1.00;;
4867;SDS011;2448;48.086;10.862;2022-11-21T13:12:07;16.93;;;0.93;;
4867;SDS011;2448;48.086;10.862;2022-11-21T13:14:41;1.00;;;0.83;;
4867;SDS011;2448;48.086;10.862;2022-11-21T13:20:04;0.70;;;0.70;;
4867;SDS011;2448;48.086;10.862;2022-11-21T13:24:59;1.73;;;1.17;;
4867;SDS011;2448;48.086;10.862;2022-11-21T13:27:25;1.53;;;0.90;;
4867;SDS011;2448;48.086;10.862;2022-11-21T13:30:25;1.07;;;0.97;;
4867;SDS011;2448;48.086;10.862;2022-11-21T13:32:44;1.93;;;0.83;;
4867;SDS011;2448;48.086;10.862;2022-11-21T13:53:23;1.73;;;1.00;;
4867;SDS011;2448;48.086;10.862;2022-11-21T13:55:57;1.60;;;1.23;;
4867;SDS011;2448;48.086;10.862;2022-11-21T14:19:41;1.07;;;0.83;;
4867;SDS011;2448;48.086;10.862;2022-11-21T14:22:23;2.53;;;1.17;;
4867;SDS011;2448;48.086;10.862;2022-11-21T14:24:50;2.30;;;1.77;;
4867;SDS011;2448;48.086;10.862;2022-11-21T14:27:19;1.33;;;1.00;;
4867;SDS011;2448;48.086;10.862;2022-11-21T14:29:46;1.67;;;1.07;;
4867;SDS011;2448;48.086;10.862;2022-11-21T14:32:15;0.77;;;0.77;;
4867;SDS011;2448;48.086;10.862;2022-11-21T14:34:40;1.53;;;0.90;;
4867;SDS011;2448;48.086;10.862;2022-11-21T14:37:06;1.90;;;1.07;;
4867;SDS011;2448;48.086;10.862;2022-11-21T14:39:32;0.70;;;0.67;;
4867;SDS011;2448;48.086;10.862;2022-11-21T14:41:58;2.83;;;0.70;;
4867;SDS011;2448;48.086;10.862;2022-11-21T14:44:25;1.53;;;0.73;;
4867;SDS011;2448;48.086;10.862;2022-11-21T14:46:51;4.67;;;1.23;;
4867;SDS011;2448;48.086;10.862;2022-11-21T14:49:26;0.90;;;0.90;;
4867;SDS011;2448;48.086;10.862;2022-11-21T14:51:58;0.93;;;0.93;;
4867;SDS011;2448;48.086;10.862;2022-11-21T14:54:25;1.90;;;1.07;;
4867;SDS011;2448;48.086;10.862;2022-11-21T14:56:56;13.40;;;1.10;;
4867;SDS011;2448;48.086;10.862;2022-11-21T14:59:26;1.10;;;1.10;;
4867;SDS011;2448;48.086;10.862;2022-11-21T15:01:53;1.57;;;1.47;;
4867;SDS011;2448;48.086;10.862;2022-11-21T15:04:26;1.20;;;1.20;;
4867;SDS011;2448;48.086;10.862;2022-11-21T15:06:52;5.60;;;3.40;;
4867;SDS011;2448;48.086;10.862;2022-11-21T15:09:17;3.97;;;3.00;;
4867;SDS011;2448;48.086;10.862;2022-11-21T15:11:48;11.17;;;1.73;;
4867;SDS011;2448;48.086;10.862;2022-11-21T15:14:17;1.60;;;1.50;;
4867;SDS011;2448;48.086;10.862;2022-11-21T15:16:45;2.67;;;1.40;;
4867;SDS011;2448;48.086;10.862;2022-11-21T15:19:16;1.63;;;1.53;;
4867;SDS011;2448;48.086;10.862;2022-11-21T15:21:43;4.20;;;1.33;;
4867;SDS011;2448;48.086;10.862;2022-11-21T15:24:16;6.57;;;1.40;;
4867;SDS011;2448;48.086;10.862;2022-11-21T15:26:42;1.87;;;1.20;;
4867;SDS011;2448;48.086;10.862;2022-11-21T15:29:17;1.10;;;1.03;;
4867;SDS011;2448;48.086;10.862;2022-11-21T15:31:44;1.30;;;1.30;;
4867;SDS011;2448;48.086;10.862;2022-11-21T15:34:09;1.20;;;1.10;;
4867;SDS011;2448;48.086;10.862;2022-11-21T15:36:34;8.30;;;1.40;;
4867;SDS011;2448;48.086;10.862;2022-11-21T15:41:35;1.40;;;1.23;;
4867;SDS011;2448;48.086;10.862;2022-11-21T15:46:30;1.47;;;1.07;;
4867;SDS011;2448;48.086;10.862;2022-11-21T15:51:22;1.43;;;1.10;;
4867;SDS011;2448;48.086;10.862;2022-11-21T15:53:48;1.07;;;1.07;;
4867;SDS011;2448;48.086;10.862;2022-11-21T15:56:14;1.37;;;0.93;;
4867;SDS011;2448;48.086;10.862;2022-11-21T15:58:40;7.93;;;2.00;;
4867;SDS011;2448;48.086;10.862;2022-11-21T16:01:05;15.23;;;1.77;;
4867;SDS011;2448;48.086;10.862;2022-11-21T16:03:35;1.20;;;1.10;;
4867;SDS011;2448;48.086;10.862;2022-11-21T16:06:00;1.73;;;1.73;;
4867;SDS011;2448;48.086;10.862;2022-11-21T16:08:26;3.60;;;1.47;;
4867;SDS011;2448;48.086;10.862;2022-11-21T16:10:51;1.00;;;1.00;;
4867;SDS011;2448;48.086;10.862;2022-11-21T16:13:16;1.33;;;1.30;;
4867;SDS011;2448;48.086;10.862;2022-11-21T16:15:42;6.90;;;1.03;;
4867;SDS011;2448;48.086;10.862;2022-11-21T16:18:07;1.37;;;1.37;;
4867;SDS011;2448;48.086;10.862;2022-11-21T16:20:32;0.80;;;0.80;;
4867;SDS011;2448;48.086;10.862;2022-11-21T16:22:58;1.30;;;1.30;;
4867;SDS011;2448;48.086;10.862;2022-11-21T16:25:23;0.93;;;0.93;;
4867;SDS011;2448;48.086;10.862;2022-11-21T16:27:48;1.57;;;1.40;;
4867;SDS011;2448;48.086;10.862;2022-11-21T16:30:14;4.43;;;1.90;;
4867;SDS011;2448;48.086;10.862;2022-11-21T16:32:39;1.20;;;1.20;;
4867;SDS011;2448;48.086;10.862;2022-11-21T16:35:04;1.30;;;1.30;;
4867;SDS011;2448;48.086;10.862;2022-11-21T16:37:30;3.80;;;1.30;;
4867;SDS011;2448;48.086;10.862;2022-11-21T16:39:56;3.50;;;1.60;;
4867;SDS011;2448;48.086;10.862;2022-11-21T16:42:21;1.60;;;1.50;;
4867;SDS011;2448;48.086;10.862;2022-11-21T16:44:46;1.30;;;1.20;;
4867;SDS011;2448;48.086;10.862;2022-11-21T16:47:12;1.30;;;1.30;;
4867;SDS011;2448;48.086;10.862;2022-11-21T16:49:38;1.27;;;1.27;;
4867;SDS011;2448;48.086;10.862;2022-11-21T16:52:07;1.70;;;1.60;;
4867;SDS011;2448;48.086;10.862;2022-11-21T16:54:33;1.80;;;1.70;;
4867;SDS011;2448;48.086;10.862;2022-11-21T16:56:58;1.10;;;1.10;;
4867;SDS011;2448;48.086;10.862;2022-11-21T16:59:23;1.10;;;1.10;;
4867;SDS011;2448;48.086;10.862;2022-11-21T17:01:49;1.30;;;1.30;;
4867;SDS011;2448;48.086;10.862;2022-11-21T17:04:15;1.80;;;1.70;;